Time;durP1;ratioP1;P1;durP2;ratioP2;P2;SDS_P1;SDS_P2;PMS_P1;PMS_P2;Temp;Humidity;BMP_temperature;BMP_pressure;BME280_temperature;BME280_humidity;BME280_pressure;Samples;Min_cycle;Max_cycle;Signal;HPM_P1;HPM_P2
2021/10/28 00:14:00;;;;;;;20.33;14.68;;;6.60;99.90;;;;;;5017625;28;20441;-76
2021/10/28 00:16:30;;;;;;;18.75;14.13;;;6.60;99.90;;;;;;5027037;28;20338;-75
2021/10/28 00:19:02;;;;;;;20.92;15.77;;;6.50;99.90;;;;;;5038738;28;20029;-76
2021/10/28 00:21:34;;;;;;;24.90;15.25;;;6.50;99.90;;;;;;5020705;28;20038;-75
2021/10/28 00:24:04;;;;;;;21.15;15.25;;;6.50;99.90;;;;;;5039135;28;20033;-74
2021/10/28 00:26:35;;;;;;;29.93;21.20;;;6.50;99.90;;;;;;5028117;28;20409;-76
2021/10/28 00:29:04;;;;;;;31.60;19.15;;;6.60;99.90;;;;;;5021786;28;20275;-75
2021/10/28 00:31:33;;;;;;;29.10;17.88;;;6.60;99.90;;;;;;5016300;28;20057;-77
2021/10/28 00:33:59;;;;;;;28.60;19.17;;;6.60;99.90;;;;;;4995892;28;20022;-76
2021/10/28 00:36:26;;;;;;;26.80;18.45;;;6.50;99.90;;;;;;5014457;28;20025;-76
2021/10/28 00:38:52;;;;;;;24.63;18.58;;;6.50;99.90;;;;;;5021649;28;20026;-76
2021/10/28 00:41:19;;;;;;;27.83;20.40;;;6.60;99.90;;;;;;5022935;28;20064;-76
2021/10/28 00:43:49;;;;;;;31.70;19.25;;;6.50;99.90;;;;;;5001116;28;20026;-76
2021/10/28 00:46:16;;;;;;;28.37;20.67;;;6.50;99.90;;;;;;5018318;28;20180;-77
2021/10/28 00:48:42;;;;;;;31.27;21.73;;;6.50;99.90;;;;;;5015984;28;20025;-76
2021/10/28 00:51:08;;;;;;;24.42;18.40;;;6.50;99.90;;;;;;5016294;28;20521;-76
2021/10/28 00:53:35;;;;;;;28.08;18.90;;;6.60;99.90;;;;;;5018037;28;20109;-76
2021/10/28 00:56:03;;;;;;;26.05;20.75;;;6.60;99.90;;;;;;5017663;28;20490;-76
2021/10/28 00:58:32;;;;;;;29.90;19.90;;;6.50;99.90;;;;;;5009287;28;20240;-77
2021/10/28 01:00:59;;;;;;;29.17;20.73;;;6.40;99.90;;;;;;5016997;28;20087;-76
2021/10/28 01:03:26;;;;;;;26.05;18.92;;;6.30;99.90;;;;;;4999709;28;20128;-76
2021/10/28 01:05:52;;;;;;;25.73;17.88;;;6.30;99.90;;;;;;5020451;28;20469;-77
2021/10/28 01:08:18;;;;;;;27.15;19.63;;;6.30;99.90;;;;;;4999871;28;20030;-76
2021/10/28 01:10:48;;;;;;;28.08;19.15;;;6.40;99.90;;;;;;5020021;28;20441;-76
2021/10/28 01:13:15;;;;;;;31.13;19.90;;;6.40;99.90;;;;;;5023437;28;20029;-76
2021/10/28 01:15:41;;;;;;;25.38;18.95;;;6.30;99.90;;;;;;5016223;28;20256;-77
2021/10/28 01:18:11;;;;;;;28.30;20.73;;;6.20;99.90;;;;;;5023171;28;20045;-77
2021/10/28 01:20:39;;;;;;;24.77;18.92;;;6.20;99.90;;;;;;5017155;28;20026;-77
2021/10/28 01:23:06;;;;;;;24.00;17.23;;;6.10;99.90;;;;;;5000768;28;20041;-76
2021/10/28 01:25:32;;;;;;;24.77;17.88;;;6.20;99.90;;;;;;5000261;28;20133;-76
2021/10/28 01:27:58;;;;;;;28.33;18.98;;;6.20;99.90;;;;;;5019287;28;20025;-76
2021/10/28 01:30:24;;;;;;;25.42;18.85;;;6.10;99.90;;;;;;5020164;28;20462;-76
2021/10/28 01:32:50;;;;;;;23.65;17.65;;;6.10;99.90;;;;;;5015688;28;20112;-77
2021/10/28 01:35:16;;;;;;;31.02;18.80;;;6.00;99.90;;;;;;5014906;28;20060;-77
2021/10/28 01:37:44;;;;;;;28.27;18.85;;;6.00;99.90;;;;;;5010123;28;20101;-77
2021/10/28 01:40:10;;;;;;;25.67;18.20;;;6.00;99.90;;;;;;4980884;28;20026;-77
2021/10/28 01:42:38;;;;;;;23.45;17.95;;;6.00;99.90;;;;;;4980716;28;20561;-76
2021/10/28 01:45:04;;;;;;;25.52;18.13;;;6.00;99.90;;;;;;4979088;28;20027;-77
2021/10/28 01:47:30;;;;;;;23.58;19.30;;;6.00;99.90;;;;;;4996406;28;20031;-77
2021/10/28 01:49:55;;;;;;;26.60;18.80;;;5.90;99.90;;;;;;5001422;28;20036;-77
2021/10/28 01:52:21;;;;;;;23.55;16.73;;;5.90;99.90;;;;;;5000101;28;20026;-77
2021/10/28 01:54:46;;;;;;;25.48;17.17;;;5.90;99.90;;;;;;4998016;28;20037;-76
2021/10/28 01:57:21;;;;;;;27.50;18.50;;;5.90;99.90;;;;;;5015954;28;20024;-77
2021/10/28 01:59:48;;;;;;;27.02;19.02;;;5.80;99.90;;;;;;4999051;28;20116;-77
2021/10/28 02:02:14;;;;;;;31.45;18.50;;;5.80;99.90;;;;;;5017983;28;20509;-77
2021/10/28 02:04:40;;;;;;;29.13;19.40;;;5.80;99.90;;;;;;5015192;28;20083;-77
2021/10/28 02:07:06;;;;;;;27.05;16.95;;;5.80;99.90;;;;;;4996557;28;20482;-77
2021/10/28 02:09:32;;;;;;;23.52;18.20;;;5.70;99.90;;;;;;5014461;28;20030;-76
2021/10/28 02:11:59;;;;;;;27.23;19.30;;;5.70;99.90;;;;;;5029326;28;20014;-75
2021/10/28 02:14:25;;;;;;;25.13;18.92;;;5.70;99.90;;;;;;5018874;28;20423;-77
2021/10/28 02:16:51;;;;;;;27.45;19.48;;;5.70;99.90;;;;;;4997642;28;20021;-76
2021/10/28 02:19:17;;;;;;;24.27;18.33;;;5.70;99.90;;;;;;5015416;28;20417;-76
2021/10/28 02:21:42;;;;;;;29.35;20.08;;;5.60;99.90;;;;;;5014847;28;20022;-77
2021/10/28 02:24:08;;;;;;;25.13;20.02;;;5.60;99.90;;;;;;5015295;28;20040;-77
2021/10/28 02:26:34;;;;;;;29.70;19.15;;;5.60;99.90;;;;;;4997707;28;20034;-77
2021/10/28 02:28:59;;;;;;;25.52;19.50;;;5.50;99.90;;;;;;5015774;28;20026;-77
2021/10/28 02:31:25;;;;;;;27.42;19.75;;;5.60;99.90;;;;;;5018869;28;20034;-77
2021/10/28 02:33:51;;;;;;;23.23;18.75;;;5.60;99.90;;;;;;5014244;28;20018;-77
2021/10/28 02:36:17;;;;;;;25.65;19.20;;;5.50;99.90;;;;;;5014463;28;20493;-76
2021/10/28 02:38:43;;;;;;;26.80;18.13;;;5.50;99.90;;;;;;4996397;28;20112;-77
2021/10/28 02:41:09;;;;;;;29.20;18.90;;;5.50;99.90;;;;;;5016943;28;20065;-77
2021/10/28 02:43:35;;;;;;;27.20;18.48;;;5.50;99.90;;;;;;4998447;28;20030;-77
2021/10/28 02:46:00;;;;;;;31.15;19.80;;;5.50;99.90;;;;;;5015347;28;20026;-76
2021/10/28 02:48:26;;;;;;;27.13;19.45;;;5.50;99.90;;;;;;5015309;28;20026;-76
2021/10/28 02:50:52;;;;;;;25.05;19.15;;;5.50;99.90;;;;;;5007618;28;20075;-76
2021/10/28 02:53:17;;;;;;;28.50;19.83;;;5.40;99.90;;;;;;5015472;28;20547;-76
2021/10/28 02:55:43;;;;;;;30.00;19.83;;;5.50;99.90;;;;;;5040099;28;20026;-77
2021/10/28 02:58:08;;;;;;;28.23;19.88;;;5.40;99.90;;;;;;5023182;28;20049;-77
2021/10/28 03:00:35;;;;;;;26.90;19.65;;;5.40;99.90;;;;;;5007608;28;20050;-77
2021/10/28 03:03:01;;;;;;;26.60;19.92;;;5.40;99.90;;;;;;5007119;28;20034;-77
2021/10/28 03:05:27;;;;;;;31.35;20.10;;;5.40;99.90;;;;;;4998210;28;20026;-76
2021/10/28 03:07:54;;;;;;;30.30;21.30;;;5.40;99.90;;;;;;5015641;28;20096;-76
2021/10/28 03:10:20;;;;;;;32.33;22.17;;;5.40;99.90;;;;;;5019471;28;20026;-76
2021/10/28 03:12:48;;;;;;;30.27;21.88;;;5.40;99.90;;;;;;4997374;28;20113;-76
2021/10/28 03:15:14;;;;;;;30.73;21.85;;;5.30;99.90;;;;;;5016170;28;20030;-76
2021/10/28 03:25:52;;;;;;;30.45;21.95;;;5.30;99.90;;;;;;5014038;28;20099;-76
2021/10/28 03:28:20;;;;;;;27.90;20.90;;;5.30;99.90;;;;;;5014132;28;20505;-75
2021/10/28 03:30:47;;;;;;;27.10;19.88;;;5.30;99.90;;;;;;5015796;28;20026;-77
2021/10/28 03:33:16;;;;;;;27.20;19.65;;;5.30;99.90;;;;;;5040279;28;20018;-75
2021/10/28 03:35:45;;;;;;;30.30;20.55;;;5.30;99.90;;;;;;5029261;28;20053;-75
2021/10/28 03:38:19;;;;;;;35.53;20.83;;;5.20;99.90;;;;;;5025406;28;20109;-77
2021/10/28 04:29:09;;;;;;;27.00;21.05;;;5.20;99.90;;;;;;5019130;28;20458;-76
2021/10/28 04:31:36;;;;;;;28.35;21.08;;;5.10;99.90;;;;;;5003433;28;20056;-76
2021/10/28 04:34:08;;;;;;;31.52;20.67;;;5.10;99.90;;;;;;5024513;28;20126;-76
2021/10/28 04:36:35;;;;;;;33.10;22.88;;;5.10;99.90;;;;;;5030277;28;20080;-76
2021/10/28 04:39:05;;;;;;;37.28;23.17;;;5.10;99.90;;;;;;5008966;28;20025;-76
2021/10/28 04:41:30;;;;;;;31.33;21.30;;;5.00;99.90;;;;;;5029268;28;20118;-76
2021/10/28 04:43:56;;;;;;;29.90;19.75;;;5.10;99.90;;;;;;5026405;28;20029;-76
2021/10/28 04:46:22;;;;;;;34.67;21.08;;;5.00;99.90;;;;;;5025999;28;20037;-77
2021/10/28 04:48:48;;;;;;;31.92;21.25;;;5.00;99.90;;;;;;5027699;28;20025;-78
2021/10/28 04:51:13;;;;;;;32.50;21.30;;;5.00;99.90;;;;;;5030235;28;20092;-76
2021/10/28 04:53:39;;;;;;;32.80;21.50;;;5.00;99.90;;;;;;5010452;28;20026;-76
2021/10/28 04:56:05;;;;;;;35.22;22.77;;;5.00;99.90;;;;;;5020639;28;20040;-77
2021/10/28 04:58:31;;;;;;;35.42;21.13;;;4.90;99.90;;;;;;5029287;28;20029;-77
2021/10/28 05:00:57;;;;;;;31.10;22.60;;;4.90;99.90;;;;;;5012722;28;20026;-76
2021/10/28 05:03:22;;;;;;;29.15;20.23;;;5.10;99.90;;;;;;5023309;28;20033;-77
2021/10/28 05:05:48;;;;;;;28.60;20.65;;;5.10;99.90;;;;;;5021991;28;20086;-75
2021/10/28 05:08:13;;;;;;;27.63;20.77;;;5.10;99.90;;;;;;5022723;28;20032;-76
2021/10/28 05:10:48;;;;;;;29.70;21.02;;;5.00;99.90;;;;;;5019818;28;20052;-76
2021/10/28 05:13:15;;;;;;;33.92;22.33;;;5.00;99.90;;;;;;5000903;28;20022;-76
2021/10/28 05:15:49;;;;;;;30.27;21.30;;;5.00;99.90;;;;;;5009552;28;20026;-76
2021/10/28 05:18:15;;;;;;;28.67;19.67;;;5.00;99.90;;;;;;5018659;28;20478;-76
2021/10/28 05:20:42;;;;;;;30.52;21.75;;;5.00;99.90;;;;;;5018205;28;20128;-75
2021/10/28 05:23:10;;;;;;;30.38;21.15;;;5.10;99.90;;;;;;5018341;28;20030;-76
2021/10/28 05:25:36;;;;;;;27.42;20.02;;;5.10;99.90;;;;;;5019700;28;20474;-77
2021/10/28 05:28:01;;;;;;;31.50;21.48;;;5.10;99.90;;;;;;5000997;28;20041;-76
2021/10/28 05:30:28;;;;;;;25.58;18.38;;;5.10;99.90;;;;;;4998764;28;20036;-75
2021/10/28 05:32:58;;;;;;;24.05;18.20;;;5.30;99.90;;;;;;4999948;28;20418;-77
2021/10/28 05:35:24;;;;;;;21.15;15.73;;;5.30;99.90;;;;;;5020162;28;20026;-78
2021/10/28 05:37:50;;;;;;;22.45;16.65;;;5.40;99.90;;;;;;5009905;28;20033;-77
2021/10/28 05:40:16;;;;;;;23.90;17.70;;;5.40;99.90;;;;;;5001727;28;20405;-77
2021/10/28 05:42:48;;;;;;;22.80;17.60;;;5.30;99.90;;;;;;4998748;28;20030;-77
2021/10/28 05:45:15;;;;;;;24.65;17.98;;;5.10;99.90;;;;;;5015968;28;20021;-76
2021/10/28 05:47:41;;;;;;;60.90;17.38;;;5.10;99.90;;;;;;5014724;28;20018;-76
2021/10/28 05:50:09;;;;;;;132.57;18.35;;;5.10;99.90;;;;;;5016223;28;20148;-77
2021/10/28 05:52:34;;;;;;;49.92;16.27;;;5.00;99.90;;;;;;5018397;28;20064;-77
2021/10/28 05:55:03;;;;;;;42.85;16.25;;;5.00;99.90;;;;;;5015022;28;20026;-77
2021/10/28 05:57:30;;;;;;;35.90;16.65;;;4.90;99.90;;;;;;4997842;28;20544;-76
2021/10/28 05:59:56;;;;;;;32.33;17.52;;;4.90;99.90;;;;;;4997536;28;20037;-77
2021/10/28 06:02:22;;;;;;;23.13;17.77;;;5.10;99.90;;;;;;5033941;23;20511;-75
2021/10/28 06:04:47;;;;;;;23.15;16.83;;;5.00;99.90;;;;;;5030001;28;20560;-77
2021/10/28 06:07:13;;;;;;;25.38;18.33;;;4.90;99.90;;;;;;5031484;28;20021;-76
2021/10/28 06:09:38;;;;;;;23.70;16.67;;;5.00;99.90;;;;;;5024814;28;20033;-74
2021/10/28 06:12:05;;;;;;;21.92;17.73;;;4.90;99.90;;;;;;5033570;28;20033;-76
2021/10/28 06:14:32;;;;;;;21.80;16.60;;;4.90;99.90;;;;;;5030542;28;20056;-76
2021/10/28 06:17:06;;;;;;;20.73;15.60;;;4.90;99.90;;;;;;5030413;28;20056;-76
2021/10/28 06:19:32;;;;;;;18.38;15.05;;;4.90;99.90;;;;;;5030067;28;20036;-75
2021/10/28 06:21:58;;;;;;;22.88;15.32;;;5.00;99.90;;;;;;5028239;28;20026;-77
2021/10/28 06:24:24;;;;;;;21.02;16.83;;;5.00;99.90;;;;;;5024605;28;20034;-77
2021/10/28 06:26:49;;;;;;;23.35;17.63;;;4.90;99.90;;;;;;5033636;28;20067;-78
2021/10/28 06:29:15;;;;;;;20.88;16.70;;;4.80;99.90;;;;;;5022329;28;20512;-76
2021/10/28 06:31:41;;;;;;;22.00;15.55;;;4.70;99.90;;;;;;5029119;28;20041;-76
2021/10/28 06:34:10;;;;;;;21.27;16.50;;;4.70;99.90;;;;;;5033116;28;20036;-75
2021/10/28 06:36:38;;;;;;;20.73;16.80;;;4.60;99.90;;;;;;5033609;28;20465;-75
2021/10/28 06:39:04;;;;;;;24.05;18.33;;;4.70;99.90;;;;;;5027965;28;20038;-75
2021/10/28 06:41:30;;;;;;;21.63;16.98;;;4.90;99.90;;;;;;5030720;28;20103;-76
2021/10/28 06:43:59;;;;;;;26.02;16.73;;;5.10;99.90;;;;;;5033031;28;20140;-76
2021/10/28 06:46:26;;;;;;;22.90;15.98;;;5.20;99.90;;;;;;5034873;28;20040;-76
2021/10/28 06:48:51;;;;;;;26.83;17.30;;;5.30;99.90;;;;;;5035590;28;20071;-76
2021/10/28 06:51:19;;;;;;;22.75;16.75;;;5.30;99.90;;;;;;5045069;28;20026;-76
2021/10/28 06:53:55;;;;;;;18.95;15.60;;;5.40;99.90;;;;;;5034004;28;20048;-76
2021/10/28 07:04:38;;;;;;;18.38;14.93;;;5.80;99.90;;;;;;5035181;28;20064;-74
2021/10/28 07:07:04;;;;;;;19.25;15.48;;;5.70;99.90;;;;;;5039403;28;20025;-75
2021/10/28 07:09:34;;;;;;;46.10;16.23;;;5.70;99.90;;;;;;5039468;28;20155;-75
2021/10/28 07:14:32;;;;;;;37.83;16.17;;;5.90;99.90;;;;;;5036001;28;20933;-74
2021/10/28 07:17:06;;;;;;;37.90;16.05;;;5.80;99.90;;;;;;5035081;28;20029;-74
2021/10/28 07:19:50;;;;;;;18.10;15.00;;;6.00;99.90;;;;;;5030159;28;20033;-73
2021/10/28 07:25:15;;;;;;;20.45;14.95;;;6.20;99.90;;;;;;5032880;28;20308;-73
2021/10/28 07:28:03;;;;;;;21.52;15.00;;;6.20;99.90;;;;;;5024698;28;20017;-76
2021/10/28 08:05:42;;;;;;;20.17;16.15;;;6.80;99.90;;;;;;5028796;28;20103;-72
2021/10/28 08:19:30;;;;;;;18.45;15.38;;;6.90;99.90;;;;;;5030123;28;20446;-73
2021/10/28 08:22:05;;;;;;;18.55;15.98;;;6.90;99.90;;;;;;5045355;28;20035;-74
2021/10/28 08:29:59;;;;;;;15.43;13.57;;;6.90;99.90;;;;;;5030964;28;20405;-73
2021/10/28 08:32:24;;;;;;;17.02;13.40;;;6.70;99.90;;;;;;5036316;28;20025;-75
2021/10/28 08:34:52;;;;;;;16.13;14.38;;;6.80;99.90;;;;;;5036167;28;20029;-74
2021/10/28 08:37:19;;;;;;;16.70;13.82;;;7.10;99.90;;;;;;5035597;28;20022;-73
2021/10/28 08:39:47;;;;;;;21.48;15.45;;;7.40;99.90;;;;;;5034422;28;20496;-74
2021/10/28 08:42:15;;;;;;;17.63;14.07;;;7.60;99.90;;;;;;5027035;28;20031;-73
2021/10/28 08:44:46;;;;;;;16.20;14.48;;;7.70;99.90;;;;;;5041276;28;20053;-71
2021/10/28 08:47:12;;;;;;;14.43;12.98;;;7.90;99.90;;;;;;5036637;28;20037;-71
2021/10/28 08:50:00;;;;;;;17.30;14.30;;;8.10;99.90;;;;;;5033011;28;20382;-73
2021/10/28 08:52:43;;;;;;;17.67;13.70;;;8.10;99.90;;;;;;5027578;28;20021;-73
2021/10/28 08:55:20;;;;;;;19.58;13.82;;;8.30;99.90;;;;;;5028344;28;20079;-74
2021/10/28 09:24:20;;;;;;;18.38;14.85;;;9.00;99.90;;;;;;5012758;28;20132;-73
2021/10/28 09:29:54;;;;;;;21.60;15.13;;;9.20;99.90;;;;;;5030057;28;20393;-73
2021/10/28 09:44:14;;;;;;;14.82;12.15;;;10.00;99.90;;;;;;5033537;28;19916;-74
2021/10/28 09:46:53;;;;;;;14.75;13.25;;;10.30;99.90;;;;;;5038907;28;20030;-74
2021/10/28 09:51:55;;;;;;;18.65;13.10;;;10.20;99.90;;;;;;5030686;28;20049;-73
2021/10/28 09:54:41;;;;;;;17.65;13.82;;;10.20;99.90;;;;;;5030933;28;20025;-74
2021/10/28 09:59:57;;;;;;;15.50;13.65;;;10.50;99.90;;;;;;5030692;28;20181;-74
2021/10/28 10:02:40;;;;;;;21.13;14.55;;;10.70;99.90;;;;;;5034745;28;20308;-74
2021/10/28 10:05:16;;;;;;;16.70;14.25;;;10.70;99.90;;;;;;5030235;28;20026;-73
2021/10/28 10:07:43;;;;;;;18.48;13.75;;;10.90;99.90;;;;;;5028554;28;20020;-73
2021/10/28 10:10:09;;;;;;;15.57;13.88;;;10.90;99.90;;;;;;5036568;28;20037;-73
2021/10/28 10:12:37;;;;;;;16.75;14.50;;;11.00;99.90;;;;;;5037938;28;20022;-73
2021/10/28 10:15:03;;;;;;;17.65;14.07;;;11.00;99.90;;;;;;5032228;28;20022;-76
2021/10/28 10:17:30;;;;;;;16.73;13.35;;;11.10;99.90;;;;;;5029030;28;20323;-75
2021/10/28 10:19:57;;;;;;;15.90;13.93;;;11.10;99.90;;;;;;5037192;28;20026;-75
2021/10/28 11:23:09;;;;;;;14.90;13.40;;;13.40;99.90;;;;;;5034495;28;20045;-78
2021/10/28 11:26:07;;;;;;;18.08;14.25;;;13.30;99.90;;;;;;5036583;28;20139;-76
2021/10/28 12:45:19;;;;;;;12.45;11.15;;;15.00;99.90;;;;;;5033316;28;20125;-75
2021/10/28 13:02:27;;;;;;;11.93;10.30;;;15.00;99.90;;;;;;5035702;28;20087;-77
2021/10/28 13:56:06;;;;;;;13.90;9.68;;;15.40;99.90;;;;;;5038634;28;20028;-77
2021/10/28 13:58:46;;;;;;;11.80;9.40;;;15.30;99.90;;;;;;5036114;28;20107;-77
2021/10/28 14:23:14;;;;;;;11.38;9.35;;;15.00;99.90;;;;;;5039739;28;20063;-76
2021/10/28 14:58:18;;;;;;;11.13;9.27;;;15.00;99.90;;;;;;5036850;28;20025;-75
2021/10/28 15:28:49;;;;;;;12.05;8.52;;;14.50;99.90;;;;;;5035938;28;20040;-74
2021/10/28 15:54:56;;;;;;;12.68;10.80;;;13.50;99.90;;;;;;5034380;28;20074;-75
2021/10/28 15:57:18;;;;;;;15.15;11.15;;;13.40;99.90;;;;;;5031988;28;20567;-75
2021/10/28 16:24:08;;;;;;;18.45;14.65;;;12.50;99.90;;;;;;5042767;28;20515;-75
2021/10/28 16:26:35;;;;;;;18.20;14.05;;;12.40;99.90;;;;;;5044901;28;20037;-75
2021/10/28 16:29:05;;;;;;;18.48;13.43;;;12.30;99.90;;;;;;5034614;28;20535;-75
2021/10/28 16:31:31;;;;;;;16.48;13.52;;;12.30;99.90;;;;;;5041499;28;20204;-75
2021/10/28 16:33:57;;;;;;;20.95;14.93;;;12.30;99.90;;;;;;5052429;28;20025;-75
2021/10/28 16:36:25;;;;;;;18.77;15.25;;;12.10;99.90;;;;;;5057220;28;20093;-74
2021/10/28 16:38:52;;;;;;;18.75;15.15;;;12.10;99.90;;;;;;5055545;28;20033;-74
2021/10/28 16:41:18;;;;;;;20.55;15.50;;;12.00;99.90;;;;;;5049801;28;20029;-76
2021/10/28 16:43:43;;;;;;;20.83;16.27;;;11.90;99.90;;;;;;5049930;28;20025;-73
2021/10/28 16:46:09;;;;;;;21.30;16.98;;;11.90;99.90;;;;;;5057382;28;20044;-74
2021/10/28 16:48:36;;;;;;;20.67;16.80;;;11.80;99.90;;;;;;5045386;28;20023;-75
2021/10/28 16:51:03;;;;;;;26.38;19.23;;;11.70;99.90;;;;;;5042509;28;20033;-74
2021/10/28 16:53:29;;;;;;;26.13;19.83;;;11.60;99.90;;;;;;5025056;28;20025;-74
2021/10/28 16:55:55;;;;;;;19.98;16.95;;;11.50;99.90;;;;;;5041636;28;20052;-76
2021/10/28 16:58:20;;;;;;;17.38;15.38;;;11.40;99.90;;;;;;5039802;28;20021;-74
2021/10/28 17:00:49;;;;;;;21.27;14.65;;;11.40;99.90;;;;;;5037556;28;20135;-76
2021/10/28 17:03:15;;;;;;;19.13;15.25;;;11.20;99.90;;;;;;5036464;28;20145;-75
2021/10/28 17:05:42;;;;;;;19.00;15.70;;;10.90;99.90;;;;;;5037971;28;20033;-76
2021/10/28 17:08:07;;;;;;;20.63;16.27;;;10.80;99.90;;;;;;5037770;28;20550;-75
2021/10/28 17:10:33;;;;;;;21.27;15.80;;;10.60;99.90;;;;;;5037466;28;20065;-75
2021/10/28 17:12:59;;;;;;;22.00;15.00;;;10.50;99.90;;;;;;5037936;28;20108;-76
2021/10/28 17:15:25;;;;;;;21.45;16.33;;;10.40;99.90;;;;;;5036354;28;20547;-75
2021/10/28 17:17:51;;;;;;;22.40;14.95;;;10.30;99.90;;;;;;5035892;28;20441;-74
2021/10/28 17:20:18;;;;;;;19.88;14.55;;;10.20;99.90;;;;;;5036251;28;20057;-75
2021/10/28 17:22:44;;;;;;;17.83;14.57;;;10.20;99.90;;;;;;5036047;28;20022;-76
2021/10/28 17:25:17;;;;;;;23.50;15.60;;;10.20;99.90;;;;;;5036237;28;20034;-75
2021/10/28 17:27:46;;;;;;;19.30;14.70;;;10.20;99.90;;;;;;5019113;28;20447;-75
2021/10/28 17:30:14;;;;;;;18.05;13.57;;;10.30;99.90;;;;;;5035908;28;20089;-75
2021/10/28 17:32:42;;;;;;;17.52;13.68;;;10.30;99.90;;;;;;5040478;28;20028;-74
2021/10/28 17:35:08;;;;;;;15.68;13.95;;;10.20;99.90;;;;;;5042603;28;20025;-74
2021/10/28 17:37:34;;;;;;;20.45;15.05;;;10.20;99.90;;;;;;5042885;28;20057;-75
2021/10/28 17:40:00;;;;;;;19.58;14.90;;;10.20;99.90;;;;;;5039163;28;20036;-76
2021/10/28 17:42:25;;;;;;;20.05;15.27;;;10.10;99.90;;;;;;5035561;28;20017;-75
2021/10/28 17:44:56;;;;;;;24.45;16.02;;;10.00;99.90;;;;;;5035644;28;20028;-75
2021/10/28 17:47:23;;;;;;;;;;;9.90;99.90;;;;;;5034904;28;20115;-75
2021/10/28 17:49:49;;;;;;;16.95;13.60;;;9.90;99.90;;;;;;5035572;28;19909;-74
2021/10/28 17:52:15;;;;;;;18.50;14.18;;;9.90;99.90;;;;;;5018414;28;20025;-74
2021/10/28 17:54:41;;;;;;;22.67;15.50;;;9.90;99.90;;;;;;5035502;28;20105;-75
2021/10/28 17:57:07;;;;;;;17.65;14.73;;;9.80;99.90;;;;;;5018164;28;20029;-76
2021/10/28 17:59:33;;;;;;;17.17;13.10;;;9.70;99.90;;;;;;5035823;28;20381;-75
2021/10/28 18:01:59;;;;;;;20.27;13.93;;;9.70;99.90;;;;;;5035261;28;20033;-76
2021/10/28 18:04:25;;;;;;;16.95;12.93;;;9.70;99.90;;;;;;5034226;28;20561;-76
2021/10/28 18:06:51;;;;;;;16.10;13.20;;;9.60;99.90;;;;;;5035242;28;20029;-77
2021/10/28 18:09:17;;;;;;;15.75;13.55;;;9.50;99.90;;;;;;5036092;28;20130;-75
2021/10/28 18:11:44;;;;;;;16.80;13.57;;;9.50;99.90;;;;;;5034788;28;20088;-76
2021/10/28 18:14:13;;;;;;;22.33;15.48;;;9.50;99.90;;;;;;5035375;28;20049;-75
2021/10/28 18:16:40;;;;;;;19.38;14.20;;;9.50;99.90;;;;;;5015140;28;20393;-76
2021/10/28 18:19:08;;;;;;;24.17;16.15;;;9.30;99.90;;;;;;5015703;28;20060;-76
2021/10/28 18:21:36;;;;;;;21.10;16.33;;;9.30;99.90;;;;;;5016308;28;20029;-74
2021/10/28 18:24:02;;;;;;;25.08;15.13;;;9.20;99.90;;;;;;5015607;28;20508;-74
2021/10/28 18:26:28;;;;;;;20.95;15.50;;;9.20;99.90;;;;;;5015428;28;20053;-75
2021/10/28 18:28:58;;;;;;;23.83;15.88;;;9.10;99.90;;;;;;5014926;28;20026;-74
2021/10/28 18:31:26;;;;;;;23.35;16.48;;;9.10;99.90;;;;;;5015081;28;20116;-76
2021/10/28 18:33:52;;;;;;;22.45;17.13;;;9.10;99.90;;;;;;5016464;28;20021;-76
2021/10/28 18:36:18;;;;;;;25.15;18.77;;;9.10;99.90;;;;;;5014889;28;20037;-74
2021/10/28 18:38:45;;;;;;;29.08;18.90;;;9.10;99.90;;;;;;5014980;28;20026;-76
2021/10/28 18:41:13;;;;;;;22.55;17.88;;;9.10;99.90;;;;;;5016869;28;20121;-76
2021/10/28 18:43:39;;;;;;;23.70;18.65;;;9.10;99.90;;;;;;5026239;28;20456;-75
2021/10/28 18:46:06;;;;;;;28.95;18.95;;;9.00;99.90;;;;;;5002209;28;20026;-77
2021/10/28 18:48:31;;;;;;;30.33;19.48;;;9.00;99.90;;;;;;5023862;28;20029;-76
2021/10/28 18:50:58;;;;;;;27.27;18.98;;;9.00;99.90;;;;;;5055464;28;20032;-77
2021/10/28 18:53:24;;;;;;;31.83;19.95;;;8.90;99.90;;;;;;5056552;28;20339;-76
2021/10/28 18:55:50;;;;;;;24.55;18.33;;;8.80;99.90;;;;;;5054800;28;20025;-76
2021/10/28 18:58:16;;;;;;;30.30;19.90;;;8.80;99.90;;;;;;5054327;28;20024;-75
2021/10/28 19:00:42;;;;;;;22.58;17.52;;;8.70;99.90;;;;;;5055669;28;20424;-75
2021/10/28 19:03:07;;;;;;;25.40;18.90;;;8.70;99.90;;;;;;5054552;28;20037;-76
2021/10/28 19:05:33;;;;;;;22.08;17.70;;;8.60;99.90;;;;;;5054722;28;20469;-77
2021/10/28 19:07:59;;;;;;;26.05;19.13;;;8.60;99.90;;;;;;5055421;28;20087;-74
2021/10/28 19:10:25;;;;;;;23.00;16.60;;;8.60;99.90;;;;;;5037666;28;20056;-75
2021/10/28 19:12:51;;;;;;;24.17;18.50;;;8.50;99.90;;;;;;5054130;28;20032;-74
2021/10/28 19:15:17;;;;;;;25.10;17.85;;;8.50;99.90;;;;;;5045230;28;20025;-77
2021/10/28 19:17:46;;;;;;;24.92;17.52;;;8.50;99.90;;;;;;5034237;28;20044;-75
2021/10/28 19:20:13;;;;;;;26.42;19.05;;;8.40;99.90;;;;;;5034459;28;20052;-76
2021/10/28 19:22:39;;;;;;;26.20;17.20;;;8.40;99.90;;;;;;5034222;28;20029;-75
2021/10/28 19:25:06;;;;;;;25.48;19.65;;;8.30;99.90;;;;;;5034410;28;20018;-75
2021/10/28 19:27:34;;;;;;;21.70;16.58;;;8.30;99.90;;;;;;5035182;28;20051;-74
2021/10/28 19:30:49;;;;;;;23.45;16.70;;;8.30;99.90;;;;;;5034326;28;20105;-76
2021/10/28 19:32:49;;;;;;;24.92;16.35;;;8.30;99.90;;;;;;5027152;28;20041;-76
2021/10/28 19:35:16;;;;;;;30.23;17.50;;;8.20;99.90;;;;;;5034162;28;20021;-76
2021/10/28 19:48:13;;;;;;;22.85;15.38;;;8.10;99.90;;;;;;5039062;28;20053;-75
2021/10/28 19:50:39;;;;;;;20.38;15.27;;;8.10;99.90;;;;;;5037597;28;20041;-75
2021/10/28 19:53:05;;;;;;;19.70;16.00;;;8.20;99.90;;;;;;5053722;28;20085;-75
2021/10/28 19:55:31;;;;;;;23.15;15.38;;;8.20;99.90;;;;;;5053674;28;20012;-72
2021/10/28 19:57:56;;;;;;;24.15;16.67;;;8.20;99.90;;;;;;5041540;28;20393;-76
2021/10/28 20:00:30;;;;;;;23.55;16.83;;;8.10;99.90;;;;;;5035611;28;20025;-74
2021/10/28 20:21:29;;;;;;;20.00;14.10;;;7.80;99.90;;;;;;5045028;28;20036;-78
2021/10/28 20:23:55;;;;;;;20.10;15.27;;;7.80;99.90;;;;;;5044973;28;20029;-75
2021/10/28 20:26:21;;;;;;;18.17;14.20;;;7.80;99.90;;;;;;5046287;28;20083;-74
2021/10/28 20:28:48;;;;;;;22.15;15.75;;;7.80;99.90;;;;;;5043161;28;20029;-73
2021/10/28 20:31:20;;;;;;;20.08;15.93;;;7.80;99.90;;;;;;5043042;28;20056;-74
2021/10/28 20:34:02;;;;;;;19.33;15.15;;;7.70;99.90;;;;;;5039876;28;20018;-75
2021/10/28 20:38:56;;;;;;;22.13;15.25;;;7.70;99.90;;;;;;5037883;28;20025;-75
2021/10/28 20:41:23;;;;;;;20.55;15.48;;;7.70;99.90;;;;;;5037746;28;20036;-75
2021/10/28 20:43:49;;;;;;;18.75;16.77;;;7.60;99.90;;;;;;5020442;28;20083;-76
2021/10/28 20:46:21;;;;;;;23.40;16.08;;;7.60;99.90;;;;;;5042992;28;20030;-75
2021/10/28 20:48:52;;;;;;;20.65;15.77;;;7.60;99.90;;;;;;5044942;28;20476;-77
2021/10/28 20:51:18;;;;;;;;;;;7.60;99.90;;;;;;5060364;28;20029;-77
2021/10/28 20:53:44;;;;;;;19.42;15.30;;;7.50;99.90;;;;;;5061664;28;20379;-76
2021/10/28 20:56:10;;;;;;;17.95;15.13;;;7.50;99.90;;;;;;5061943;28;20134;-74
2021/10/28 20:58:37;;;;;;;20.45;17.40;;;7.50;99.90;;;;;;5060869;28;20025;-74
2021/10/28 21:01:04;;;;;;;23.23;17.20;;;7.50;99.90;;;;;;5059585;28;20025;-75
2021/10/28 21:03:30;;;;;;;30.45;19.30;;;7.40;99.90;;;;;;5061643;28;20048;-76
2021/10/28 21:05:56;;;;;;;26.05;17.75;;;7.40;99.90;;;;;;5079857;28;20063;-74
2021/10/28 21:08:23;;;;;;;18.25;14.10;;;7.40;99.90;;;;;;5073931;28;20033;-75
2021/10/28 21:10:48;;;;;;;18.92;15.02;;;7.30;99.90;;;;;;5042932;28;20025;-76
2021/10/28 21:13:14;;;;;;;18.77;16.17;;;7.30;99.90;;;;;;5057395;28;20025;-76
2021/10/28 21:15:40;;;;;;;24.13;16.35;;;7.30;99.90;;;;;;5045576;28;20029;-75
2021/10/28 21:18:06;;;;;;;18.30;15.70;;;7.40;99.90;;;;;;5037020;28;20041;-75
2021/10/28 21:20:31;;;;;;;22.08;16.55;;;7.40;99.90;;;;;;5038531;28;20045;-75
2021/10/28 21:22:57;;;;;;;24.15;17.27;;;7.40;99.90;;;;;;5038128;28;20030;-75
2021/10/28 21:25:23;;;;;;;24.67;15.55;;;7.30;99.90;;;;;;5038138;28;20483;-74
2021/10/28 21:27:49;;;;;;;21.48;16.35;;;7.30;99.90;;;;;;5037286;28;20025;-75
2021/10/28 21:30:15;;;;;;;24.60;16.33;;;7.20;99.90;;;;;;5019219;28;20120;-75
2021/10/28 21:32:42;;;;;;;20.00;15.60;;;7.20;99.90;;;;;;5036785;28;20080;-74
2021/10/28 21:35:12;;;;;;;22.10;17.00;;;7.20;99.90;;;;;;5039198;28;20045;-76
2021/10/28 21:37:40;;;;;;;21.27;17.17;;;7.20;99.90;;;;;;5042095;28;20061;-75
2021/10/28 21:40:11;;;;;;;22.88;16.15;;;7.20;99.90;;;;;;5020812;28;20025;-75
2021/10/28 21:42:37;;;;;;;21.55;15.90;;;7.30;99.90;;;;;;5038423;28;20483;-74
2021/10/28 21:45:10;;;;;;;20.27;14.85;;;7.30;99.90;;;;;;5039329;28;20121;-75